Time;durP1;ratioP1;P1;durP2;ratioP2;P2;SDS_P1;SDS_P2;PMS_P1;PMS_P2;Temp;Humidity;BMP_temperature;BMP_pressure;BME280_temperature;BME280_humidity;BME280_pressure;Samples;Min_cycle;Max_cycle;Signal;HPM_P1;HPM_P2
2022/03/08 00:01:24;;;;;;;10.70;6.07;;;-0.40;99.90;;;;;;4984782;28;20057;-82
2022/03/08 00:03:50;;;;;;;12.27;6.22;;;-0.70;99.90;;;;;;4990077;28;20493;-83
2022/03/08 00:06:15;;;;;;;11.70;6.18;;;-0.20;99.90;;;;;;4989663;28;20049;-82
2022/03/08 00:08:42;;;;;;;10.02;6.15;;;-0.40;99.90;;;;;;5005888;28;20120;-83
2022/03/08 00:11:08;;;;;;;17.88;6.15;;;-0.60;99.90;;;;;;4975356;28;20052;-82
2022/03/08 00:13:34;;;;;;;15.57;6.78;;;-0.80;99.90;;;;;;4979043;28;20033;-83
2022/03/08 00:15:59;;;;;;;10.05;6.22;;;-0.90;99.90;;;;;;4975062;28;20382;-83
2022/03/08 00:18:25;;;;;;;9.68;6.22;;;-0.90;99.90;;;;;;4993509;28;20030;-83
2022/03/08 00:20:50;;;;;;;10.60;6.05;;;-1.00;99.90;;;;;;4986616;28;20033;-83
2022/03/08 00:23:16;;;;;;;11.63;5.95;;;-1.00;99.90;;;;;;4987968;28;20452;-83
2022/03/08 00:25:41;;;;;;;10.20;5.63;;;-1.00;99.90;;;;;;4986875;28;20080;-83
2022/03/08 00:28:07;;;;;;;12.45;6.63;;;-1.10;99.90;;;;;;4986620;28;20030;-84
2022/03/08 00:30:33;;;;;;;12.40;6.63;;;-1.10;99.90;;;;;;4974897;28;20432;-84
2022/03/08 00:32:58;;;;;;;11.02;6.05;;;-1.10;99.90;;;;;;4969415;28;20481;-83
2022/03/08 00:35:24;;;;;;;8.43;5.43;;;-1.10;99.90;;;;;;4998618;28;20513;-83
2022/03/08 00:37:50;;;;;;;11.43;6.07;;;-1.10;99.90;;;;;;4969315;28;20028;-84
2022/03/08 00:40:16;;;;;;;10.48;6.05;;;-1.20;99.90;;;;;;4984630;28;20036;-83
2022/03/08 00:42:42;;;;;;;12.60;6.32;;;-1.10;99.90;;;;;;4970471;28;20041;-83
2022/03/08 00:45:08;;;;;;;9.23;6.22;;;-1.00;99.90;;;;;;4986661;28;20080;-84
2022/03/08 00:47:39;;;;;;;10.95;6.60;;;-1.30;99.90;;;;;;5001020;28;20516;-83
2022/03/08 00:50:06;;;;;;;13.68;6.70;;;-1.30;99.90;;;;;;4982854;28;20034;-83
2022/03/08 00:52:32;;;;;;;14.10;7.60;;;-1.50;99.90;;;;;;4970038;28;20026;-83
2022/03/08 00:54:57;;;;;;;16.00;8.27;;;-1.60;99.90;;;;;;4985931;28;20520;-83
2022/03/08 00:57:23;;;;;;;16.42;8.48;;;-1.50;99.90;;;;;;4968048;28;20068;-83
2022/03/08 00:59:49;;;;;;;13.90;7.70;;;-1.50;99.90;;;;;;4974858;28;20052;-83
2022/03/08 01:02:14;;;;;;;14.73;8.38;;;-1.70;99.90;;;;;;4996438;28;20402;-84
2022/03/08 01:04:40;;;;;;;16.73;8.57;;;-1.70;99.90;;;;;;4971468;28;20041;-83
2022/03/08 01:07:08;;;;;;;14.13;7.88;;;-1.60;99.90;;;;;;5016806;28;20037;-82
2022/03/08 01:09:34;;;;;;;11.43;7.28;;;-1.60;99.90;;;;;;4974224;28;20033;-83
2022/03/08 01:11:59;;;;;;;13.20;7.70;;;-1.40;99.90;;;;;;5005525;28;20037;-84
2022/03/08 01:14:25;;;;;;;9.45;6.60;;;-1.40;99.90;;;;;;4983780;28;20489;-84
2022/03/08 01:16:50;;;;;;;13.65;7.82;;;-1.40;99.90;;;;;;4987100;28;20072;-84
2022/03/08 01:19:16;;;;;;;14.25;7.65;;;-1.50;99.90;;;;;;5001342;28;20037;-84
2022/03/08 01:21:42;;;;;;;15.68;7.95;;;-1.70;99.90;;;;;;4989030;28;20048;-83
2022/03/08 01:24:07;;;;;;;14.05;7.60;;;-1.90;99.90;;;;;;4987458;28;20120;-84
2022/03/08 01:26:33;;;;;;;14.48;7.32;;;-2.00;99.90;;;;;;4991686;28;20037;-84
2022/03/08 01:28:59;;;;;;;11.43;7.07;;;-1.80;99.90;;;;;;4966847;28;20056;-83
2022/03/08 01:31:24;;;;;;;15.38;7.50;;;-1.80;99.90;;;;;;4982409;28;20045;-83
2022/03/08 01:33:50;;;;;;;14.15;7.80;;;-1.80;99.90;;;;;;4972421;28;20408;-83
2022/03/08 01:36:16;;;;;;;12.80;8.00;;;-1.90;99.90;;;;;;4983602;28;20046;-86
2022/03/08 01:38:41;;;;;;;14.15;8.15;;;-2.00;99.90;;;;;;5002720;28;20270;-85
2022/03/08 01:41:07;;;;;;;14.25;8.90;;;-2.10;99.90;;;;;;4997892;28;20073;-84
2022/03/08 01:43:33;;;;;;;16.23;8.88;;;-2.20;99.90;;;;;;4986891;28;20033;-84
2022/03/08 01:45:58;;;;;;;13.77;8.23;;;-2.20;99.90;;;;;;4968997;28;20060;-85
2022/03/08 01:48:24;;;;;;;13.73;8.20;;;-2.20;99.90;;;;;;4969826;28;20033;-86
2022/03/08 01:50:49;;;;;;;15.30;8.40;;;-2.10;99.90;;;;;;4984315;28;20025;-85
2022/03/08 01:53:15;;;;;;;16.15;7.95;;;-2.10;99.90;;;;;;4985431;28;20068;-85
2022/03/08 01:55:40;;;;;;;16.30;8.38;;;-2.20;99.90;;;;;;4995821;28;20065;-85
2022/03/08 01:58:06;;;;;;;19.00;8.55;;;-2.20;99.90;;;;;;4987109;28;20026;-86
2022/03/08 02:00:33;;;;;;;12.45;7.65;;;-2.20;99.90;;;;;;4972696;28;20038;-83
2022/03/08 02:02:59;;;;;;;13.65;8.45;;;-2.10;99.90;;;;;;4972731;28;20124;-85
2022/03/08 02:05:25;;;;;;;11.98;7.40;;;-2.10;99.90;;;;;;4985004;28;20121;-84
2022/03/08 02:07:51;;;;;;;13.23;7.90;;;-2.00;99.90;;;;;;5000120;28;20037;-84
2022/03/08 02:10:16;;;;;;;13.23;7.65;;;-2.00;99.90;;;;;;4979545;28;20036;-83
2022/03/08 02:12:42;;;;;;;13.85;7.30;;;-2.10;99.90;;;;;;5000683;28;20124;-83
2022/03/08 02:15:24;;;;;;;15.15;8.55;;;-2.40;99.90;;;;;;4975503;28;20038;-82
2022/03/08 02:17:49;;;;;;;13.73;8.02;;;-2.50;99.90;;;;;;4988199;28;20113;-83
2022/03/08 02:20:15;;;;;;;13.93;8.60;;;-2.60;99.90;;;;;;4983659;28;20133;-85
2022/03/08 02:22:42;;;;;;;17.33;8.70;;;-2.60;99.90;;;;;;4986633;28;20417;-84
2022/03/08 02:25:07;;;;;;;13.75;7.85;;;-2.60;99.90;;;;;;4984443;28;20030;-83
2022/03/08 02:27:33;;;;;;;13.95;7.97;;;-2.50;99.90;;;;;;4995440;28;20263;-85
2022/03/08 02:29:59;;;;;;;11.93;6.93;;;-2.50;99.90;;;;;;4979499;28;20416;-84
2022/03/08 02:32:24;;;;;;;11.27;6.82;;;-2.60;99.90;;;;;;4972268;28;20401;-84
2022/03/08 02:34:50;;;;;;;19.65;8.30;;;-2.20;99.90;;;;;;4985981;28;20046;-84
2022/03/08 02:37:15;;;;;;;14.60;8.65;;;-2.30;99.90;;;;;;5005442;28;20800;-84
2022/03/08 02:39:41;;;;;;;14.70;7.85;;;-2.60;99.90;;;;;;5004380;28;20974;-86
2022/03/08 02:42:07;;;;;;;15.23;7.87;;;-2.60;99.90;;;;;;4985950;28;20018;-86
2022/03/08 02:44:33;;;;;;;15.77;8.60;;;-2.60;99.90;;;;;;4980373;28;20030;-83
2022/03/08 02:47:03;;;;;;;13.60;8.02;;;-2.70;99.90;;;;;;4987663;28;20036;-83
2022/03/08 02:49:28;;;;;;;12.98;8.63;;;-2.70;99.90;;;;;;4983838;28;20025;-84
2022/03/08 02:51:56;;;;;;;15.73;8.85;;;-2.70;99.90;;;;;;4987252;28;20022;-83
2022/03/08 02:54:22;;;;;;;14.15;8.10;;;-2.60;99.90;;;;;;4973367;28;20046;-84
2022/03/08 02:56:47;;;;;;;16.73;8.27;;;-2.70;99.90;;;;;;5000058;28;20493;-83
2022/03/08 02:59:19;;;;;;;16.35;8.35;;;-2.90;99.90;;;;;;4986001;28;20034;-83
2022/03/08 03:01:44;;;;;;;13.82;7.65;;;-2.70;99.90;;;;;;5001332;28;20022;-83
2022/03/08 03:04:10;;;;;;;16.90;8.45;;;-2.60;99.90;;;;;;4986773;28;20033;-84
2022/03/08 03:06:35;;;;;;;18.55;7.80;;;-2.60;99.90;;;;;;4989579;28;20026;-85
2022/03/08 03:09:02;;;;;;;16.33;8.57;;;-2.60;99.90;;;;;;4972463;28;20041;-85
2022/03/08 03:11:27;;;;;;;15.27;8.30;;;-2.70;99.90;;;;;;4983098;28;20033;-84
2022/03/08 03:13:53;;;;;;;15.48;7.72;;;-2.70;99.90;;;;;;4972015;28;20052;-83
2022/03/08 03:16:18;;;;;;;14.27;8.30;;;-2.70;99.90;;;;;;4973976;28;20104;-86
2022/03/08 03:18:44;;;;;;;16.70;9.02;;;-2.60;99.90;;;;;;4987367;28;20049;-85
2022/03/08 03:21:09;;;;;;;12.52;7.78;;;-2.90;99.90;;;;;;4986795;28;20120;-85
2022/03/08 03:23:35;;;;;;;17.05;8.02;;;-2.80;99.90;;;;;;4973809;28;20033;-84
2022/03/08 03:26:00;;;;;;;16.65;8.35;;;-2.80;99.90;;;;;;4972480;28;20623;-85
2022/03/08 03:28:26;;;;;;;12.35;7.72;;;-2.80;99.90;;;;;;4986734;28;20053;-85
2022/03/08 03:30:51;;;;;;;16.48;7.82;;;-2.80;99.90;;;;;;4975310;28;20061;-84
2022/03/08 03:33:17;;;;;;;12.98;7.53;;;-2.90;99.90;;;;;;4977778;28;20480;-85
2022/03/08 03:35:42;;;;;;;14.52;7.72;;;-2.70;99.90;;;;;;4987944;28;20529;-85
2022/03/08 03:38:08;;;;;;;14.43;8.52;;;-2.90;99.90;;;;;;4989865;28;20121;-85
2022/03/08 03:40:33;;;;;;;11.68;6.82;;;-2.90;99.90;;;;;;4984341;28;20034;-83
2022/03/08 03:42:59;;;;;;;14.73;8.57;;;-2.80;99.90;;;;;;4970285;28;20062;-84
2022/03/08 03:45:25;;;;;;;13.00;8.25;;;-2.80;99.90;;;;;;4973685;28;20440;-84
2022/03/08 03:47:50;;;;;;;16.35;7.57;;;-2.90;99.90;;;;;;4992813;28;20022;-85
2022/03/08 03:50:16;;;;;;;13.02;8.38;;;-2.80;99.90;;;;;;4985548;28;20483;-85
2022/03/08 03:52:41;;;;;;;13.27;8.73;;;-2.70;99.90;;;;;;5000649;28;20790;-85
2022/03/08 03:55:07;;;;;;;17.73;8.35;;;-2.70;99.90;;;;;;4991277;28;20108;-84
2022/03/08 03:57:33;;;;;;;14.90;7.90;;;-2.70;99.90;;;;;;4976778;28;20056;-85
2022/03/08 03:59:58;;;;;;;17.23;8.63;;;-2.80;99.90;;;;;;4967678;28;20111;-80
2022/03/08 04:02:24;;;;;;;15.82;7.82;;;-2.90;99.90;;;;;;4970146;28;20516;-81
2022/03/08 04:04:49;;;;;;;13.48;8.05;;;-2.80;99.90;;;;;;4973037;28;20025;-81
2022/03/08 04:07:15;;;;;;;16.35;8.90;;;-2.80;99.90;;;;;;4983687;28;20022;-80
2022/03/08 04:09:40;;;;;;;14.13;8.35;;;-2.80;99.90;;;;;;4984494;28;20393;-81
2022/03/08 04:12:07;;;;;;;15.52;7.53;;;-2.80;99.90;;;;;;4989098;28;20048;-81
2022/03/08 04:14:32;;;;;;;20.58;9.18;;;-2.80;99.90;;;;;;4970624;28;20053;-81
2022/03/08 04:16:58;;;;;;;13.02;7.65;;;-2.80;99.90;;;;;;4983848;28;20045;-81
2022/03/08 04:19:23;;;;;;;15.52;8.27;;;-2.90;99.90;;;;;;4972546;28;20049;-81
2022/03/08 04:21:49;;;;;;;18.00;8.18;;;-2.80;99.90;;;;;;4988072;28;20029;-81
2022/03/08 04:24:14;;;;;;;14.80;8.70;;;-2.80;99.90;;;;;;4967352;28;20038;-81
2022/03/08 04:26:40;;;;;;;15.60;8.98;;;-2.80;99.90;;;;;;4981622;28;20124;-80
2022/03/08 04:29:05;;;;;;;14.52;8.43;;;-2.80;99.90;;;;;;4986275;28;20438;-81
2022/03/08 04:31:32;;;;;;;17.67;9.15;;;-3.00;99.90;;;;;;5001898;28;20124;-80
2022/03/08 04:33:58;;;;;;;17.05;9.38;;;-3.00;99.90;;;;;;4977391;28;20021;-81
2022/03/08 04:36:23;;;;;;;20.83;8.35;;;-3.00;99.90;;;;;;4986305;28;20045;-81
2022/03/08 04:38:49;;;;;;;13.68;8.30;;;-3.00;99.90;;;;;;4990074;28;20026;-80
2022/03/08 04:41:14;;;;;;;13.55;8.35;;;-3.00;99.90;;;;;;4988596;28;20038;-80
2022/03/08 04:43:40;;;;;;;14.57;8.05;;;-3.10;99.90;;;;;;4966176;28;20421;-80
2022/03/08 04:46:05;;;;;;;13.95;8.18;;;-3.10;99.90;;;;;;4998527;28;20536;-80
2022/03/08 04:48:31;;;;;;;13.57;7.82;;;-3.00;99.90;;;;;;4987039;28;20033;-79
2022/03/08 04:50:56;;;;;;;13.38;8.07;;;-3.00;99.90;;;;;;4981294;28;20033;-80
2022/03/08 04:53:22;;;;;;;15.50;8.50;;;-2.90;99.90;;;;;;4986124;28;20034;-80
2022/03/08 04:55:47;;;;;;;16.35;8.25;;;-3.00;99.90;;;;;;4999463;28;20120;-80
2022/03/08 04:58:13;;;;;;;17.33;8.50;;;-3.10;99.90;;;;;;4970330;28;20467;-80
2022/03/08 05:00:38;;;;;;;16.77;9.27;;;-3.20;99.90;;;;;;4996702;28;20486;-80
2022/03/08 05:03:04;;;;;;;21.15;10.00;;;-3.20;99.90;;;;;;4991938;28;20116;-80
2022/03/08 05:05:32;;;;;;;15.90;9.38;;;-3.30;99.90;;;;;;4967426;28;20500;-79
2022/03/08 05:07:59;;;;;;;16.10;9.40;;;-3.30;99.90;;;;;;4970232;28;20062;-79
2022/03/08 05:10:25;;;;;;;22.13;9.23;;;-3.40;99.90;;;;;;4973911;28;20030;-80
2022/03/08 05:12:52;;;;;;;16.90;9.27;;;-3.30;99.90;;;;;;4981291;28;20025;-79
2022/03/08 05:15:17;;;;;;;15.82;8.82;;;-3.20;99.90;;;;;;4983114;28;20037;-80
2022/03/08 05:17:43;;;;;;;17.15;9.65;;;-3.20;99.90;;;;;;4967816;28;20033;-80
2022/03/08 05:20:09;;;;;;;17.35;9.13;;;-3.20;99.90;;;;;;4982072;28;20367;-80
2022/03/08 05:22:34;;;;;;;15.90;9.20;;;-3.20;99.90;;;;;;4984534;28;20050;-79
2022/03/08 05:25:00;;;;;;;13.02;8.25;;;-3.20;99.90;;;;;;4974904;28;20049;-79
2022/03/08 05:27:26;;;;;;;16.88;9.75;;;-3.20;99.90;;;;;;4980390;28;20512;-79
2022/03/08 05:29:53;;;;;;;18.58;8.18;;;-3.00;99.90;;;;;;4984629;28;20045;-82
2022/03/08 05:32:18;;;;;;;17.10;8.65;;;-3.20;99.90;;;;;;5005048;28;20060;-80
2022/03/08 05:34:44;;;;;;;14.90;8.80;;;-3.20;99.90;;;;;;4990499;28;20496;-81
2022/03/08 05:37:09;;;;;;;17.98;10.30;;;-3.20;99.90;;;;;;4984620;28;20025;-80
2022/03/08 05:39:35;;;;;;;18.65;10.18;;;-3.20;99.90;;;;;;4972930;28;20056;-81
2022/03/08 05:42:00;;;;;;;19.38;8.80;;;-3.30;99.90;;;;;;4988834;28;20056;-81
2022/03/08 05:44:26;;;;;;;16.42;9.45;;;-3.30;99.90;;;;;;4970377;28;20037;-82
2022/03/08 05:46:51;;;;;;;20.95;10.45;;;-3.40;99.90;;;;;;4974458;28;20063;-81
2022/03/08 05:49:17;;;;;;;20.48;9.07;;;-3.30;99.90;;;;;;4983560;28;20030;-81
2022/03/08 05:51:43;;;;;;;18.60;9.93;;;-3.40;99.90;;;;;;4981003;28;20301;-81
2022/03/08 05:54:08;;;;;;;16.65;9.63;;;-3.40;99.90;;;;;;4970055;28;20091;-82
2022/03/08 05:56:34;;;;;;;15.38;8.52;;;-3.40;99.90;;;;;;4998140;28;20045;-82
2022/03/08 05:59:00;;;;;;;16.25;8.75;;;-3.40;99.90;;;;;;4973725;28;20040;-81
2022/03/08 06:01:25;;;;;;;14.10;8.68;;;-3.40;99.90;;;;;;4973073;28;20057;-81
2022/03/08 06:03:51;;;;;;;15.20;8.77;;;-3.30;99.90;;;;;;4970434;28;20033;-79
2022/03/08 06:06:16;;;;;;;14.77;8.45;;;-3.40;99.90;;;;;;4967653;28;20044;-81
2022/03/08 06:08:42;;;;;;;17.48;8.85;;;-3.30;99.90;;;;;;4973275;28;20055;-80
2022/03/08 06:11:08;;;;;;;19.77;9.23;;;-3.50;99.90;;;;;;4970772;28;20053;-80
2022/03/08 06:13:34;;;;;;;13.93;8.82;;;-3.60;99.90;;;;;;4996392;28;20038;-80
2022/03/08 06:15:59;;;;;;;17.67;10.27;;;-3.60;99.90;;;;;;4968606;28;20026;-81
2022/03/08 06:18:25;;;;;;;20.17;10.07;;;-3.60;99.90;;;;;;4996271;28;20044;-82
2022/03/08 06:20:51;;;;;;;17.95;9.80;;;-3.50;99.90;;;;;;4965778;28;20037;-82
2022/03/08 06:23:16;;;;;;;15.70;9.23;;;-3.50;99.90;;;;;;4980890;28;20038;-83
2022/03/08 06:25:42;;;;;;;19.15;9.57;;;-3.50;99.90;;;;;;4998333;28;20494;-81
2022/03/08 06:28:08;;;;;;;17.17;10.43;;;-3.50;99.90;;;;;;4969978;28;20073;-83
2022/03/08 06:30:34;;;;;;;17.17;9.82;;;-3.40;99.90;;;;;;4988702;28;20057;-82
2022/03/08 06:32:59;;;;;;;16.90;9.60;;;-3.40;99.90;;;;;;4972989;28;20675;-82
2022/03/08 06:35:25;;;;;;;17.70;10.27;;;-3.20;99.90;;;;;;4984511;28;20033;-82
2022/03/08 06:37:50;;;;;;;16.30;10.38;;;-3.20;99.90;;;;;;4981574;28;20401;-81
2022/03/08 06:40:16;;;;;;;17.95;10.45;;;-3.10;99.90;;;;;;4968038;28;20044;-81
2022/03/08 06:42:41;;;;;;;17.75;10.05;;;-3.00;99.90;;;;;;4987164;28;20398;-82
2022/03/08 06:45:07;;;;;;;18.48;9.80;;;-3.00;99.90;;;;;;4969961;28;20026;-81
2022/03/08 06:47:33;;;;;;;17.88;9.02;;;-3.10;99.90;;;;;;4973311;28;20037;-81
2022/03/08 06:49:59;;;;;;;16.63;10.30;;;-3.00;99.90;;;;;;4973160;28;20033;-81
2022/03/08 06:52:25;;;;;;;16.92;9.30;;;-3.00;99.90;;;;;;4967026;28;20041;-81
2022/03/08 06:54:50;;;;;;;17.67;9.50;;;-2.90;99.90;;;;;;4971585;28;20120;-80
2022/03/08 06:57:16;;;;;;;19.23;9.73;;;-2.90;99.90;;;;;;4986211;28;20029;-81
2022/03/08 06:59:41;;;;;;;25.52;10.43;;;-2.90;99.90;;;;;;4982251;28;20114;-81
2022/03/08 07:02:07;;;;;;;19.63;11.32;;;-2.90;99.90;;;;;;4965074;28;20066;-81
2022/03/08 07:04:32;;;;;;;19.30;10.98;;;-2.90;99.90;;;;;;4963745;28;20519;-82
2022/03/08 07:06:58;;;;;;;23.08;10.27;;;-2.80;99.90;;;;;;4972575;28;20485;-81
2022/03/08 07:09:24;;;;;;;15.65;8.98;;;-2.70;99.90;;;;;;4981878;28;20050;-81
2022/03/08 07:11:50;;;;;;;18.55;10.15;;;-2.50;99.90;;;;;;4969191;28;20029;-80
2022/03/08 07:14:17;;;;;;;17.98;9.40;;;-2.40;99.90;;;;;;4967984;28;20087;-82
2022/03/08 07:16:43;;;;;;;18.80;9.48;;;-2.30;99.90;;;;;;4990557;28;20026;-83
2022/03/08 07:19:10;;;;;;;16.63;9.27;;;-2.10;99.90;;;;;;5002878;28;20500;-81
2022/03/08 07:21:36;;;;;;;19.42;11.02;;;-2.00;99.90;;;;;;5001960;28;20033;-81
2022/03/08 07:24:02;;;;;;;16.88;10.13;;;-2.00;99.90;;;;;;4969921;28;20467;-81
2022/03/08 07:26:28;;;;;;;18.75;9.65;;;-1.90;99.90;;;;;;4969700;28;20100;-82
2022/03/08 07:28:53;;;;;;;14.32;8.95;;;-1.80;99.90;;;;;;4977459;28;20499;-81
2022/03/08 07:31:20;;;;;;;17.48;9.13;;;-1.60;99.90;;;;;;4973591;28;20033;-82
2022/03/08 07:33:47;;;;;;;18.65;9.80;;;-1.50;99.90;;;;;;4991617;28;20022;-82
2022/03/08 07:36:12;;;;;;;19.13;10.23;;;-1.40;99.90;;;;;;4986385;28;20173;-81
2022/03/08 07:38:38;;;;;;;15.38;9.80;;;-1.50;99.90;;;;;;4970906;28;20041;-83
2022/03/08 07:41:11;;;;;;;17.98;9.40;;;-1.30;99.90;;;;;;4970506;28;20030;-81
2022/03/08 07:43:37;;;;;;;25.73;10.63;;;-1.20;99.90;;;;;;4984175;28;20037;-82
2022/03/08 07:46:03;;;;;;;17.48;8.88;;;-1.10;99.90;;;;;;4969863;28;20045;-81
2022/03/08 07:48:30;;;;;;;14.15;8.43;;;-0.90;99.90;;;;;;4973003;28;20037;-81
2022/03/08 07:50:55;;;;;;;15.88;8.95;;;-0.60;99.90;;;;;;4985355;28;20041;-81
2022/03/08 07:53:22;;;;;;;16.10;9.00;;;-0.40;99.90;;;;;;4971750;28;20432;-81
2022/03/08 07:55:48;;;;;;;16.60;9.68;;;-0.30;99.90;;;;;;4978087;28;20051;-82
2022/03/08 07:58:14;;;;;;;15.02;8.80;;;0.00;99.90;;;;;;4982145;28;20049;-82
2022/03/08 08:00:41;;;;;;;15.40;7.15;;;0.10;99.90;;;;;;4996624;28;20378;-81
2022/03/08 08:03:07;;;;;;;13.18;8.55;;;0.40;99.90;;;;;;4987929;28;20038;-82
2022/03/08 08:05:34;;;;;;;12.95;8.13;;;0.40;99.90;;;;;;4998571;28;20066;-82
2022/03/08 08:08:00;;;;;;;16.30;10.20;;;0.60;99.90;;;;;;4972298;28;20069;-82
2022/03/08 08:10:25;;;;;;;15.73;8.20;;;0.50;99.90;;;;;;4987582;28;20115;-82
2022/03/08 08:12:51;;;;;;;14.73;8.93;;;0.70;99.90;;;;;;4976063;28;20112;-81
2022/03/08 08:15:16;;;;;;;11.70;8.40;;;0.80;99.90;;;;;;4972033;28;20037;-81
2022/03/08 08:17:42;;;;;;;18.00;8.48;;;1.00;99.90;;;;;;4997042;28;20068;-82
2022/03/08 08:20:10;;;;;;;12.90;8.18;;;0.90;99.90;;;;;;4984880;28;20029;-81
2022/03/08 08:22:36;;;;;;;14.95;7.85;;;1.20;99.90;;;;;;5001941;28;20045;-82
2022/03/08 08:25:01;;;;;;;10.85;6.88;;;1.40;99.90;;;;;;4973900;28;20107;-81
2022/03/08 08:27:27;;;;;;;13.43;8.05;;;1.40;99.90;;;;;;4967291;28;20034;-81
2022/03/08 08:29:53;;;;;;;13.15;8.48;;;1.30;99.90;;;;;;4972250;28;20534;-81
2022/03/08 08:32:18;;;;;;;15.07;9.07;;;1.60;99.90;;;;;;5002123;28;20066;-81
2022/03/08 08:34:44;;;;;;;16.48;8.00;;;2.10;99.90;;;;;;4998255;28;20076;-81
2022/03/08 08:37:09;;;;;;;16.48;8.23;;;2.20;99.90;;;;;;4998685;28;20072;-81
2022/03/08 08:39:36;;;;;;;14.02;7.82;;;2.70;99.90;;;;;;4966769;28;20498;-81
2022/03/08 08:42:01;;;;;;;14.48;7.15;;;2.80;99.90;;;;;;4981936;28;20052;-81
2022/03/08 08:44:27;;;;;;;12.57;7.30;;;3.30;99.90;;;;;;4973626;28;20042;-81
2022/03/08 08:46:53;;;;;;;10.82;6.88;;;3.80;99.90;;;;;;4969460;28;20500;-81
2022/03/08 08:49:19;;;;;;;9.85;5.93;;;3.70;99.90;;;;;;4973118;28;20459;-81
2022/03/08 08:51:44;;;;;;;9.95;5.88;;;4.00;99.90;;;;;;4974686;28;20029;-81
2022/03/08 08:54:10;;;;;;;15.30;6.82;;;4.40;99.90;;;;;;4989943;28;20022;-80
2022/03/08 08:56:35;;;;;;;8.70;5.43;;;4.50;99.90;;;;;;4986259;28;20116;-80
2022/03/08 08:59:04;;;;;;;8.63;5.78;;;5.40;99.90;;;;;;4975446;28;20053;-82
2022/03/08 09:01:29;;;;;;;9.25;5.40;;;5.70;99.90;;;;;;4980278;28;20046;-80
2022/03/08 09:03:55;;;;;;;9.05;4.95;;;5.40;99.90;;;;;;4971990;28;20082;-80
2022/03/08 09:06:20;;;;;;;7.00;5.10;;;5.60;99.90;;;;;;4988913;28;20117;-81
2022/03/08 09:08:46;;;;;;;7.30;4.93;;;5.90;98.10;;;;;;4985205;28;20401;-80
2022/03/08 09:11:12;;;;;;;5.43;4.40;;;5.90;97.90;;;;;;4983625;28;20034;-80
2022/03/08 09:13:39;;;;;;;5.88;4.50;;;5.90;96.30;;;;;;4969237;28;20045;-80
2022/03/08 09:16:05;;;;;;;5.97;4.22;;;6.40;95.40;;;;;;4998502;28;20081;-80
2022/03/08 09:18:30;;;;;;;10.05;5.07;;;6.60;95.10;;;;;;4973218;28;20033;-81
2022/03/08 09:20:56;;;;;;;7.55;4.93;;;6.90;91.50;;;;;;4971046;28;20060;-81
2022/03/08 09:23:21;;;;;;;8.68;4.80;;;7.00;90.70;;;;;;4986567;28;20037;-80
2022/03/08 09:25:47;;;;;;;6.78;4.28;;;6.90;88.80;;;;;;4984150;28;20033;-79
2022/03/08 09:28:12;;;;;;;6.40;4.03;;;7.30;87.00;;;;;;4979069;28;20064;-78
2022/03/08 09:30:38;;;;;;;6.43;4.50;;;7.70;81.20;;;;;;4979303;28;20092;-80
2022/03/08 09:33:04;;;;;;;6.68;5.30;;;7.70;80.50;;;;;;4985017;28;20033;-80
2022/03/08 09:35:29;;;;;;;2.45;1.70;;;7.80;77.00;;;;;;4982161;28;20042;-80
2022/03/08 09:37:55;;;;;;;5.15;4.28;;;8.10;76.20;;;;;;4966589;28;20033;-80
2022/03/08 09:40:23;;;;;;;6.97;3.50;;;8.40;74.50;;;;;;4973883;28;20048;-80
2022/03/08 09:42:49;;;;;;;5.10;3.80;;;8.10;73.80;;;;;;4994590;28;20041;-80
2022/03/08 09:45:15;;;;;;;8.40;3.63;;;8.60;68.10;;;;;;4993881;28;20064;-80
2022/03/08 09:47:40;;;;;;;5.30;3.22;;;8.10;69.40;;;;;;4987784;28;20057;-79
2022/03/08 09:50:07;;;;;;;5.38;3.85;;;8.50;68.60;;;;;;4995987;28;20034;-80
2022/03/08 09:52:34;;;;;;;5.60;4.53;;;8.60;69.90;;;;;;4985618;28;20273;-80
2022/03/08 09:54:59;;;;;;;5.70;3.70;;;8.40;67.40;;;;;;4969971;28;20045;-81
2022/03/08 09:57:25;;;;;;;3.13;2.42;;;8.90;67.00;;;;;;4973713;28;20037;-80
2022/03/08 09:59:51;;;;;;;6.15;4.38;;;9.20;66.60;;;;;;4997053;28;20029;-80
2022/03/08 10:02:17;;;;;;;9.18;4.13;;;9.30;63.60;;;;;;4968312;28;20172;-80
2022/03/08 10:04:42;;;;;;;5.00;3.92;;;9.00;62.80;;;;;;4998264;28;20064;-80
2022/03/08 10:07:09;;;;;;;6.65;4.50;;;9.40;61.90;;;;;;4963627;28;20464;-80
2022/03/08 10:09:36;;;;;;;6.13;3.92;;;9.20;62.80;;;;;;4963993;28;20043;-80
2022/03/08 10:12:01;;;;;;;6.10;4.07;;;9.80;61.40;;;;;;4981669;28;20133;-80
2022/03/08 10:14:38;;;;;;;8.30;4.35;;;10.10;58.30;;;;;;4969892;28;20060;-80
2022/03/08 10:17:05;;;;;;;6.60;5.00;;;9.80;60.60;;;;;;4984077;28;20034;-80
2022/03/08 10:19:30;;;;;;;7.13;3.50;;;9.90;58.80;;;;;;4996962;28;20034;-80
2022/03/08 10:21:57;;;;;;;7.18;4.75;;;9.80;58.80;;;;;;4972211;28;20036;-79
2022/03/08 10:24:23;;;;;;;6.72;3.97;;;9.70;59.70;;;;;;4982985;28;20049;-80
2022/03/08 10:26:57;;;;;;;5.43;4.13;;;10.40;58.50;;;;;;4983919;28;20033;-80
2022/03/08 10:29:26;;;;;;;5.88;3.30;;;9.60;59.50;;;;;;5000410;28;20104;-80
2022/03/08 10:32:19;;;;;;;6.82;4.43;;;10.60;57.70;;;;;;5012761;28;20052;-79
2022/03/08 10:34:46;;;;;;;7.80;4.03;;;10.20;56.40;;;;;;4997406;28;20509;-81
2022/03/08 10:37:15;;;;;;;6.45;4.03;;;10.60;58.50;;;;;;4971342;28;20034;-80
2022/03/08 10:39:54;;;;;;;5.65;3.92;;;10.60;57.90;;;;;;4989887;28;20166;-80
2022/03/08 10:42:28;;;;;;;5.43;4.32;;;10.40;56.40;;;;;;4971542;28;20517;-80
2022/03/08 10:45:20;;;;;;;7.80;5.30;;;10.50;56.10;;;;;;4972200;28;20033;-80
2022/03/08 10:47:51;;;;;;;5.93;4.60;;;10.40;56.00;;;;;;4984526;28;20026;-80
2022/03/08 10:50:18;;;;;;;6.70;4.35;;;10.30;55.60;;;;;;4983185;28;20486;-80
2022/03/08 10:52:45;;;;;;;9.82;5.22;;;10.10;55.80;;;;;;5001029;28;20440;-80
2022/03/08 10:55:24;;;;;;;6.18;4.47;;;11.10;54.80;;;;;;4986903;28;20034;-80
2022/03/08 10:58:04;;;;;;;7.45;4.55;;;10.70;54.60;;;;;;5007098;28;20633;-80
2022/03/08 11:00:30;;;;;;;6.20;4.95;;;11.60;52.80;;;;;;4991333;28;20481;-80
2022/03/08 11:02:58;;;;;;;7.82;4.40;;;11.50;54.40;;;;;;4991982;28;20057;-80
2022/03/08 11:05:25;;;;;;;6.47;3.55;;;11.00;52.90;;;;;;4975896;28;20040;-80
2022/03/08 11:07:51;;;;;;;6.10;3.70;;;11.40;52.60;;;;;;4987034;28;20219;-79
2022/03/08 11:10:17;;;;;;;5.15;3.97;;;11.70;52.00;;;;;;4972750;28;20041;-80
2022/03/08 11:12:42;;;;;;;6.35;3.78;;;12.20;50.90;;;;;;4990355;28;20033;-80
2022/03/08 11:15:09;;;;;;;7.50;4.80;;;11.80;50.30;;;;;;4990395;28;20500;-79
2022/03/08 11:17:37;;;;;;;8.63;4.75;;;11.60;51.50;;;;;;4622473;28;9999791;-80
2022/03/08 11:20:05;;;;;;;6.75;3.80;;;11.20;51.00;;;;;;4983092;28;20395;-81
2022/03/08 11:22:32;;;;;;;9.68;4.65;;;11.30;52.40;;;;;;4987639;28;20034;-81
2022/03/08 11:24:58;;;;;;;5.75;4.57;;;11.70;51.80;;;;;;4985012;28;20041;-79
2022/03/08 11:27:23;;;;;;;6.57;3.35;;;12.50;49.40;;;;;;4969428;28;20096;-79
2022/03/08 11:29:49;;;;;;;5.60;4.07;;;12.30;48.60;;;;;;4985154;28;20056;-78
2022/03/08 11:32:21;;;;;;;6.85;4.72;;;12.30;48.20;;;;;;4988764;28;20061;-79
2022/03/08 11:34:53;;;;;;;4.40;3.25;;;11.50;49.20;;;;;;4999046;28;20934;-79
2022/03/08 11:37:20;;;;;;;7.38;3.67;;;11.20;49.40;;;;;;4983958;28;20029;-79
2022/03/08 11:40:07;;;;;;;5.47;3.15;;;11.40;49.30;;;;;;4990806;28;20742;-79
2022/03/08 11:42:34;;;;;;;5.13;4.22;;;11.70;48.00;;;;;;4984822;28;20037;-80
2022/03/08 11:45:02;;;;;;;5.22;4.18;;;11.70;48.80;;;;;;4977787;28;20030;-80
2022/03/08 11:48:07;;;;;;;7.03;4.57;;;11.70;48.90;;;;;;4983617;28;20385;-81
2022/03/08 11:50:39;;;;;;;4.97;3.20;;;12.50;49.10;;;;;;4996331;28;20033;-80
2022/03/08 11:53:05;;;;;;;4.45;3.78;;;12.30;48.60;;;;;;4973153;28;20041;-80
2022/03/08 11:55:56;;;;;;;6.55;4.40;;;12.10;48.40;;;;;;5012750;28;20352;-80
2022/03/08 11:58:23;;;;;;;4.20;3.40;;;12.70;46.60;;;;;;5003351;28;20030;-80
2022/03/08 12:00:53;;;;;;;6.05;4.25;;;12.70;46.30;;;;;;4986472;28;20037;-81
2022/03/08 12:03:24;;;;;;;7.00;4.10;;;12.60;46.30;;;;;;5000665;28;20442;-81
2022/03/08 12:06:03;;;;;;;6.13;2.83;;;11.90;48.20;;;;;;5004847;28;20033;-80
2022/03/08 12:08:29;;;;;;;3.95;3.55;;;12.60;45.80;;;;;;4991182;28;20041;-80
2022/03/08 12:10:58;;;;;;;6.70;4.10;;;12.00;45.40;;;;;;5008911;28;20025;-80
2022/03/08 12:13:37;;;;;;;5.22;3.45;;;12.90;44.50;;;;;;4980924;28;20383;-79
2022/03/08 12:16:08;;;;;;;6.55;3.67;;;12.80;44.70;;;;;;4998522;28;20029;-79
2022/03/08 12:18:42;;;;;;;8.93;3.45;;;12.70;44.80;;;;;;5008822;28;20041;-80
2022/03/08 12:21:17;;;;;;;7.15;3.60;;;12.80;46.00;;;;;;4969906;28;20029;-80
2022/03/08 12:24:02;;;;;;;6.47;3.40;;;12.20;46.90;;;;;;5002551;28;20036;-80
2022/03/08 12:26:36;;;;;;;7.47;3.50;;;12.50;44.30;;;;;;5016126;28;20037;-80
2022/03/08 12:29:18;;;;;;;9.07;3.80;;;12.90;44.10;;;;;;4973696;28;20280;-79
2022/03/08 12:31:56;;;;;;;6.63;3.83;;;12.90;43.20;;;;;;4986307;28;20561;-80
2022/03/08 12:34:43;;;;;;;4.45;3.33;;;12.40;43.80;;;;;;5016901;28;20054;-80
2022/03/08 12:37:28;;;;;;;4.68;3.35;;;12.90;44.10;;;;;;5016210;28;20038;-80
2022/03/08 12:40:10;;;;;;;6.32;3.67;;;13.80;43.40;;;;;;5002200;28;20043;-81